Time;durP1;ratioP1;P1;durP2;ratioP2;P2;SDS_P1;SDS_P2;PMS_P1;PMS_P2;Temp;Humidity;BMP_temperature;BMP_pressure;BME280_temperature;BME280_humidity;BME280_pressure;Samples;Min_cycle;Max_cycle;Signal;HPM_P1;HPM_P2
2021/12/25 00:01:29;;;;;;;0.10;0.10;;;;;;;4.00;89.30;100717.56;5044451;28;20061;-82
2021/12/25 00:03:56;;;;;;;0.20;0.20;;;;;;;3.98;89.48;100725.25;5028091;28;20025;-81
2021/12/25 00:06:22;;;;;;;0.10;0.10;;;;;;;3.95;89.05;100721.59;5043820;28;20028;-81
2021/12/25 00:08:48;;;;;;;0.30;0.30;;;;;;;3.88;89.01;100728.16;5048362;28;20028;-81
2021/12/25 00:11:14;;;;;;;0.20;0.20;;;;;;;3.81;88.75;100726.91;5044873;28;20049;-82
2021/12/25 00:13:40;;;;;;;0.17;0.17;;;;;;;3.71;88.42;100728.16;5031519;28;20033;-80
2021/12/25 00:16:07;;;;;;;0.23;0.23;;;;;;;3.68;88.68;100734.84;5048694;28;20059;-83
2021/12/25 00:18:34;;;;;;;0.10;0.10;;;;;;;3.62;88.67;100729.34;5043856;28;20033;-82
2021/12/25 00:20:59;;;;;;;0.23;0.23;;;;;;;3.54;88.61;100723.72;5049777;28;20444;-81
2021/12/25 00:23:25;;;;;;;0.20;0.20;;;;;;;3.51;88.43;100736.50;5050860;28;20037;-81
2021/12/25 00:25:59;;;;;;;0.20;0.20;;;;;;;3.39;88.16;100728.94;5038580;28;20025;-81
2021/12/25 00:36:10;;;;;;;0.10;0.10;;;;;;;3.18;88.83;100726.97;5042695;28;20040;-80
2021/12/25 00:38:37;;;;;;;0.10;0.10;;;;;;;3.13;88.87;100733.56;5037194;28;20029;-83
2021/12/25 00:41:05;;;;;;;0.17;0.17;;;;;;;3.10;88.63;100731.69;5037976;28;20033;-84
2021/12/25 00:43:31;;;;;;;0.20;0.20;;;;;;;3.05;88.54;100732.22;5041001;28;20031;-81
2021/12/25 00:45:56;;;;;;;0.13;0.13;;;;;;;3.05;88.55;100737.41;5057325;28;20037;-79
2021/12/25 00:48:22;;;;;;;0.10;0.10;;;;;;;2.98;88.64;100733.56;5059071;28;20112;-83
2021/12/25 00:50:47;;;;;;;0.20;0.20;;;;;;;2.92;88.85;100734.09;5041981;28;20379;-82
2021/12/25 00:53:13;;;;;;;0.20;0.20;;;;;;;2.93;88.89;100740.19;5039827;28;20407;-83
2021/12/25 00:55:38;;;;;;;0.40;0.40;;;;;;;2.89;89.08;100741.69;5037295;28;20037;-79
2021/12/25 00:58:04;;;;;;;0.20;0.20;;;;;;;2.85;89.27;100731.97;5039207;28;20033;-81
2021/12/25 01:00:29;;;;;;;0.13;0.13;;;;;;;2.86;89.13;100738.94;5041192;28;20044;-81
2021/12/25 01:02:55;;;;;;;0.10;0.10;;;;;;;2.85;89.61;100735.44;5041247;28;20021;-82
2021/12/25 01:05:20;;;;;;;0.20;0.20;;;;;;;2.87;89.54;100739.00;5057714;28;20062;-83
2021/12/25 01:07:46;;;;;;;0.10;0.10;;;;;;;2.85;89.63;100739.72;5034663;28;20036;-82
2021/12/25 01:10:15;;;;;;;0.10;0.10;;;;;;;2.82;89.25;100743.03;5037395;28;20084;-80
2021/12/25 01:15:25;;;;;;;0.20;0.20;;;;;;;2.78;89.47;100743.66;5040761;28;20037;-83
2021/12/25 01:23:59;;;;;;;0.10;0.10;;;;;;;2.69;89.01;100737.94;5041465;28;20048;-81
2021/12/25 01:36:41;;;;;;;0.10;0.10;;;;;;;2.63;88.79;100733.31;5048341;28;20152;-82
2021/12/25 01:49:31;;;;;;;0.20;0.20;;;;;;;2.53;88.94;100730.97;5045707;28;20086;-78
2021/12/25 01:51:57;;;;;;;0.20;0.20;;;;;;;2.49;88.89;100729.03;5040747;28;20116;-80
2021/12/25 01:54:22;;;;;;;0.20;0.20;;;;;;;2.48;88.96;100725.53;5051269;28;20056;-81
2021/12/25 01:56:48;;;;;;;0.23;0.23;;;;;;;2.45;88.50;100733.09;5068845;28;20021;-81
2021/12/25 01:59:14;;;;;;;0.27;0.27;;;;;;;2.42;88.86;100738.09;5063109;28;20022;-83
2021/12/25 02:01:39;;;;;;;0.67;0.67;;;;;;;2.40;88.73;100730.25;5060521;28;20052;-82
2021/12/25 02:04:05;;;;;;;0.20;0.20;;;;;;;2.31;88.46;100738.34;5048126;28;20028;-81
2021/12/25 02:06:30;;;;;;;0.20;0.20;;;;;;;2.29;88.26;100731.28;5062271;28;20040;-80
2021/12/25 02:08:56;;;;;;;0.17;0.17;;;;;;;2.30;88.44;100738.25;5063218;28;20025;-78
2021/12/25 02:11:21;;;;;;;0.30;0.30;;;;;;;2.26;88.30;100744.94;5068812;28;20071;-80
2021/12/25 02:13:47;;;;;;;0.20;0.20;;;;;;;2.24;88.42;100743.06;5043387;28;20029;-77
2021/12/25 02:16:17;;;;;;;0.20;0.20;;;;;;;2.23;88.15;100736.97;5048198;28;20061;-77
2021/12/25 02:21:36;;;;;;;0.25;0.25;;;;;;;2.15;88.22;100745.97;5039461;28;20075;-76
2021/12/25 02:24:07;;;;;;;0.20;0.20;;;;;;;2.15;88.70;100744.28;5045005;28;20021;-76
2021/12/25 02:26:33;;;;;;;0.30;0.30;;;;;;;2.12;88.72;100745.78;5058782;28;20028;-75
2021/12/25 02:28:59;;;;;;;0.20;0.20;;;;;;;2.10;88.66;100745.69;5055718;28;20302;-78
2021/12/25 02:31:25;;;;;;;0.20;0.20;;;;;;;2.09;88.33;100743.91;5037645;28;20359;-80
2021/12/25 02:33:51;;;;;;;0.20;0.20;;;;;;;2.00;88.17;100743.34;5039128;28;20132;-77
2021/12/25 02:36:17;;;;;;;0.20;0.20;;;;;;;1.96;88.17;100747.44;5039587;28;20017;-79
2021/12/25 02:38:43;;;;;;;0.17;0.17;;;;;;;1.90;87.89;100745.38;5043928;28;20028;-78
2021/12/25 02:41:09;;;;;;;0.20;0.20;;;;;;;1.85;87.83;100753.59;5059726;28;20268;-79
2021/12/25 02:43:35;;;;;;;0.10;0.10;;;;;;;1.83;88.27;100752.63;5056899;28;20387;-75
2021/12/25 02:46:03;;;;;;;0.20;0.20;;;;;;;1.76;88.16;100754.81;5061435;28;20052;-78
2021/12/25 02:48:30;;;;;;;0.20;0.20;;;;;;;1.71;87.98;100755.31;5036506;28;20040;-79
2021/12/25 02:50:56;;;;;;;0.10;0.10;;;;;;;1.67;88.35;100763.69;5039708;28;20287;-76
2021/12/25 02:53:21;;;;;;;0.20;0.20;;;;;;;1.65;87.89;100768.75;5040084;28;20327;-78
2021/12/25 02:55:47;;;;;;;0.20;0.20;;;;;;;1.66;88.14;100774.81;5057548;28;20100;-75
2021/12/25 02:58:14;;;;;;;0.20;0.20;;;;;;;1.61;88.27;100765.06;5044178;28;20447;-77
2021/12/25 03:00:48;;;;;;;0.23;0.23;;;;;;;1.61;88.05;100769.34;5047262;28;20292;-78
2021/12/25 03:03:14;;;;;;;0.20;0.20;;;;;;;1.59;87.86;100771.84;5038721;28;20524;-80
2021/12/25 03:05:39;;;;;;;0.20;0.20;;;;;;;1.55;88.08;100767.25;5057737;28;20268;-76
2021/12/25 03:08:06;;;;;;;0.10;0.10;;;;;;;1.55;88.03;100775.00;5058826;28;20021;-76
2021/12/25 03:10:33;;;;;;;0.10;0.10;;;;;;;1.53;88.14;100779.19;5041060;28;20016;-76
2021/12/25 03:13:29;;;;;;;0.10;0.10;;;;;;;1.49;87.98;100780.69;5057546;28;20287;-73
2021/12/25 03:15:51;;;;;;;0.20;0.20;;;;;;;1.44;87.95;100776.91;5037952;28;20307;-75
2021/12/25 03:18:18;;;;;;;0.20;0.20;;;;;;;1.45;88.09;100772.63;5049913;28;20287;-75
2021/12/25 03:20:45;;;;;;;0.20;0.20;;;;;;;1.42;87.77;100783.66;5056394;28;20414;-74
2021/12/25 03:23:16;;;;;;;0.20;0.20;;;;;;;1.39;87.64;100788.63;5058262;28;20264;-76
2021/12/25 03:25:43;;;;;;;0.10;0.10;;;;;;;1.39;88.06;100792.88;5054828;28;20313;-76
2021/12/25 03:28:08;;;;;;;0.20;0.20;;;;;;;1.36;87.80;100793.56;5057840;28;20287;-76
2021/12/25 03:30:38;;;;;;;0.20;0.20;;;;;;;1.35;87.83;100795.28;5055921;28;20341;-75
2021/12/25 03:33:05;;;;;;;0.20;0.20;;;;;;;1.36;87.87;100797.06;5057008;28;20032;-75
2021/12/25 03:35:30;;;;;;;0.20;0.20;;;;;;;1.32;87.49;100804.50;5057699;28;20321;-76
2021/12/25 03:37:55;;;;;;;0.13;0.13;;;;;;;1.29;87.29;100810.34;5051293;28;20304;-76
2021/12/25 03:40:21;;;;;;;0.27;0.27;;;;;;;1.29;87.43;100810.34;5055370;28;20037;-76
2021/12/25 03:42:46;;;;;;;0.30;0.30;;;;;;;1.27;86.94;100806.78;5057524;28;20300;-77
2021/12/25 03:45:12;;;;;;;0.30;0.30;;;;;;;1.23;87.07;100813.44;5057106;28;20178;-76
2021/12/25 03:47:39;;;;;;;0.23;0.23;;;;;;;1.22;86.88;100803.91;5054412;28;20035;-77
2021/12/25 03:58:12;;;;;;;0.20;0.20;;;;;;;1.21;87.17;100812.44;5050529;28;20311;-76
2021/12/25 04:00:38;;;;;;;0.20;0.20;;;;;;;1.19;87.32;100814.00;5036741;28;20264;-76
2021/12/25 04:03:08;;;;;;;0.20;0.20;;;;;;;1.15;86.96;100816.28;5044339;28;20271;-78
2021/12/25 04:05:37;;;;;;;0.10;0.10;;;;;;;1.17;87.54;100823.34;5056917;28;20071;-76
2021/12/25 04:08:07;;;;;;;0.30;0.30;;;;;;;1.17;87.48;100827.63;5050046;28;20271;-77
2021/12/25 04:10:37;;;;;;;0.20;0.20;;;;;;;1.15;87.59;100834.34;5036714;28;20358;-76
2021/12/25 04:13:05;;;;;;;0.20;0.20;;;;;;;1.12;87.22;100837.59;5044045;28;20383;-77
2021/12/25 04:15:30;;;;;;;0.13;0.13;;;;;;;1.12;87.01;100837.59;5056878;28;20302;-77
2021/12/25 04:17:56;;;;;;;0.20;0.20;;;;;;;1.12;87.05;100839.31;5050432;28;20594;-77
2021/12/25 04:20:22;;;;;;;0.20;0.20;;;;;;;1.16;86.87;100842.19;5043471;28;20414;-77
2021/12/25 04:23:07;;;;;;;0.20;0.20;;;;;;;1.13;87.25;100838.50;5056550;28;20096;-77
2021/12/25 04:25:35;;;;;;;0.20;0.20;;;;;;;1.06;86.93;100835.53;5057314;28;20039;-76
2021/12/25 04:28:11;;;;;;;0.30;0.30;;;;;;;1.05;87.19;100838.91;5037678;28;20044;-77
2021/12/25 04:50:08;;;;;;;0.20;0.20;;;;;;;0.86;87.46;100861.66;5036033;28;20283;-75
2021/12/25 05:03:41;;;;;;;0.20;0.20;;;;;;;0.75;87.37;100872.13;5062438;28;20681;-78
2021/12/25 05:06:06;;;;;;;0.13;0.13;;;;;;;0.71;86.64;100869.22;5062043;28;20281;-76
2021/12/25 05:08:31;;;;;;;0.27;0.27;;;;;;;0.67;86.90;100868.13;5047740;28;20287;-76
2021/12/25 05:10:57;;;;;;;0.20;0.20;;;;;;;0.66;87.10;100874.97;5040465;28;20029;-74
2021/12/25 05:13:22;;;;;;;0.30;0.30;;;;;;;0.64;87.23;100873.09;5050055;28;20410;-75
2021/12/25 05:15:48;;;;;;;0.30;0.30;;;;;;;0.66;87.13;100872.41;5059225;28;20039;-78
2021/12/25 05:18:13;;;;;;;0.20;0.20;;;;;;;0.63;87.17;100887.63;5050615;28;20036;-76
2021/12/25 05:20:39;;;;;;;0.20;0.20;;;;;;;0.60;86.91;100879.72;5043455;28;20435;-75
2021/12/25 05:23:04;;;;;;;0.20;0.20;;;;;;;0.61;87.12;100888.34;5052517;28;20017;-78
2021/12/25 05:25:31;;;;;;;0.20;0.20;;;;;;;0.65;87.24;100888.66;5040715;28;20021;-77
2021/12/25 05:27:58;;;;;;;0.30;0.30;;;;;;;0.64;87.33;100897.16;5041967;28;20049;-77
2021/12/25 05:30:24;;;;;;;0.20;0.20;;;;;;;0.64;87.48;100893.69;5040869;28;20276;-74
2021/12/25 05:32:49;;;;;;;0.20;0.20;;;;;;;0.62;87.06;100901.31;5040450;28;20299;-77
2021/12/25 05:35:14;;;;;;;0.20;0.20;;;;;;;0.62;86.71;100895.28;5054310;28;20117;-77
2021/12/25 05:37:40;;;;;;;0.20;0.20;;;;;;;0.58;86.59;100895.84;5059794;28;20111;-77
2021/12/25 05:40:06;;;;;;;0.27;0.27;;;;;;;0.54;86.03;100899.88;5059149;28;20102;-72
2021/12/25 05:42:32;;;;;;;0.30;0.30;;;;;;;0.50;86.11;100903.06;5059937;28;20089;-75
2021/12/25 05:44:57;;;;;;;0.40;0.40;;;;;;;0.49;86.33;100903.84;5059872;28;20283;-76
2021/12/25 05:47:22;;;;;;;0.30;0.30;;;;;;;0.44;86.42;100903.50;5051814;28;20104;-78
2021/12/25 05:49:48;;;;;;;0.20;0.20;;;;;;;0.42;86.22;100912.81;5039788;28;20040;-75
2021/12/25 05:52:14;;;;;;;0.20;0.20;;;;;;;0.43;86.57;100909.44;5039717;28;20026;-75
2021/12/25 05:54:39;;;;;;;0.33;0.33;;;;;;;0.39;86.28;100908.31;5039574;28;20036;-72
2021/12/25 05:57:05;;;;;;;0.20;0.20;;;;;;;0.36;86.32;100918.44;5039456;28;20586;-76
2021/12/25 05:59:31;;;;;;;0.40;0.40;;;;;;;0.35;86.38;100915.72;5058331;28;20050;-76
2021/12/25 06:01:56;;;;;;;0.20;0.20;;;;;;;0.35;86.44;100928.63;5055126;28;20082;-74
2021/12/25 06:04:21;;;;;;;0.30;0.30;;;;;;;0.34;86.88;100926.81;5059777;28;20082;-74
2021/12/25 06:06:59;;;;;;;0.30;0.30;;;;;;;0.29;86.24;100926.50;5042239;28;20021;-76
2021/12/25 06:09:24;;;;;;;0.40;0.40;;;;;;;0.26;86.04;100926.28;5058457;28;20035;-75
2021/12/25 06:11:49;;;;;;;0.30;0.30;;;;;;;0.28;86.42;100927.28;5059834;28;20506;-76
2021/12/25 06:14:20;;;;;;;0.30;0.30;;;;;;;0.25;86.07;100925.38;5058611;28;20033;-78
2021/12/25 06:16:46;;;;;;;0.30;0.30;;;;;;;0.21;85.92;100930.22;5039318;28;20112;-77
2021/12/25 06:19:12;;;;;;;0.30;0.30;;;;;;;0.17;86.14;100926.53;5056430;28;20291;-76
2021/12/25 06:21:38;;;;;;;0.30;0.30;;;;;;;0.13;86.19;100933.13;5052536;28;20329;-76
2021/12/25 06:24:05;;;;;;;0.20;0.20;;;;;;;0.12;86.08;100935.59;5059447;28;20100;-75
2021/12/25 06:26:31;;;;;;;0.30;0.30;;;;;;;0.12;86.01;100938.16;5059292;28;20096;-76
2021/12/25 06:28:56;;;;;;;0.30;0.30;;;;;;;0.05;85.31;100935.97;5050711;28;20379;-74
2021/12/25 06:31:22;;;;;;;0.33;0.33;;;;;;;-0.04;85.38;100957.69;5039149;28;20021;-78
2021/12/25 06:33:47;;;;;;;0.30;0.30;;;;;;;-0.11;85.09;100945.13;5038905;28;20025;-77
2021/12/25 06:36:13;;;;;;;0.20;0.20;;;;;;;-0.12;85.17;100956.22;5039439;28;20021;-75
2021/12/25 06:38:40;;;;;;;0.30;0.30;;;;;;;-0.15;84.77;100954.31;5040318;28;20078;-73
2021/12/25 06:41:05;;;;;;;0.40;0.40;;;;;;;-0.15;85.17;100953.41;5039756;28;20335;-74
2021/12/25 06:43:31;;;;;;;0.30;0.30;;;;;;;-0.19;85.13;100952.28;5055714;28;20295;-75
2021/12/25 06:45:57;;;;;;;0.30;0.30;;;;;;;-0.21;85.16;100955.53;5058751;28;20020;-74
2021/12/25 06:48:22;;;;;;;0.40;0.40;;;;;;;-0.23;85.33;100951.94;5048707;28;20132;-77
2021/12/25 06:50:48;;;;;;;0.40;0.40;;;;;;;-0.25;84.33;100959.53;5038968;28;20017;-73
2021/12/25 06:53:13;;;;;;;0.33;0.33;;;;;;;-0.35;83.34;100960.56;5052500;28;20033;-75
2021/12/25 06:55:39;;;;;;;0.43;0.43;;;;;;;-0.39;82.68;100958.53;5053285;28;20033;-75
2021/12/25 06:58:04;;;;;;;0.40;0.40;;;;;;;-0.50;82.84;100960.28;5040575;28;20387;-75
2021/12/25 07:00:31;;;;;;;0.50;0.50;;;;;;;-0.56;83.05;100957.28;5056731;28;20017;-75
2021/12/25 07:02:57;;;;;;;0.37;0.37;;;;;;;-0.67;81.61;100956.47;5048531;28;20017;-73
2021/12/25 07:05:23;;;;;;;0.40;0.40;;;;;;;-0.73;82.16;100976.56;5037408;28;20377;-73
2021/12/25 07:07:49;;;;;;;0.37;0.37;;;;;;;-0.81;81.46;100972.53;5041814;28;20276;-74
2021/12/25 07:10:15;;;;;;;0.40;0.40;;;;;;;-0.86;82.30;100975.63;5041624;28;20410;-72
2021/12/25 07:12:44;;;;;;;0.40;0.40;;;;;;;-0.91;81.69;100979.53;5053902;28;20370;-73
2021/12/25 07:15:09;;;;;;;0.40;0.40;;;;;;;-0.95;81.07;100987.78;5037391;28;20029;-75
2021/12/25 07:17:35;;;;;;;0.40;0.40;;;;;;;-0.97;82.60;100979.06;5040454;28;20271;-73
2021/12/25 07:20:00;;;;;;;0.30;0.30;;;;;;;-1.00;82.33;100983.97;5058385;28;20056;-74
2021/12/25 07:22:26;;;;;;;0.40;0.40;;;;;;;-1.05;82.34;100993.88;5053509;28;20036;-74
2021/12/25 07:24:52;;;;;;;0.50;0.50;;;;;;;-1.14;81.98;100991.50;5045457;28;20303;-74
2021/12/25 07:27:17;;;;;;;0.50;0.50;;;;;;;-1.19;81.61;100994.50;5037645;28;20030;-75
2021/12/25 07:29:43;;;;;;;0.50;0.50;;;;;;;-1.19;82.27;100991.94;5037183;28;20371;-74
2021/12/25 07:32:08;;;;;;;0.50;0.50;;;;;;;-1.27;82.76;100999.94;5038236;28;20036;-74
2021/12/25 07:34:33;;;;;;;0.40;0.40;;;;;;;-1.32;82.98;101006.38;5039418;28;20053;-72
2021/12/25 07:37:00;;;;;;;0.40;0.40;;;;;;;-1.37;82.39;101017.94;5050981;28;20383;-74
2021/12/25 07:39:26;;;;;;;0.40;0.40;;;;;;;-1.43;81.80;101010.66;5036890;28;20060;-75
2021/12/25 07:41:51;;;;;;;0.40;0.40;;;;;;;-1.48;82.24;101004.28;5038135;28;20287;-73
2021/12/25 07:44:17;;;;;;;0.33;0.33;;;;;;;-1.52;82.20;101008.28;5036781;28;20440;-77
2021/12/25 07:46:44;;;;;;;0.40;0.40;;;;;;;-1.55;82.72;101007.13;5049103;28;20291;-76
2021/12/25 07:49:18;;;;;;;0.30;0.30;;;;;;;-1.60;82.69;101011.91;5040285;28;20036;-75
2021/12/25 07:51:43;;;;;;;0.50;0.50;;;;;;;-1.63;83.06;101015.91;5038615;28;20287;-74
2021/12/25 07:54:09;;;;;;;0.40;0.40;;;;;;;-1.69;82.30;101019.75;5036705;28;20288;-74
2021/12/25 07:56:35;;;;;;;0.50;0.50;;;;;;;-1.72;82.73;101024.66;5036846;28;20041;-75
2021/12/25 07:59:00;;;;;;;0.30;0.30;;;;;;;-1.72;82.89;101028.88;5037814;28;20033;-73
2021/12/25 08:01:26;;;;;;;0.47;0.47;;;;;;;-1.77;82.30;101033.63;5036951;28;20056;-76
2021/12/25 08:03:51;;;;;;;0.40;0.40;;;;;;;-1.79;82.67;101042.91;5037667;28;20410;-76
2021/12/25 08:06:17;;;;;;;0.40;0.40;;;;;;;-1.74;82.31;101045.84;5038675;28;20036;-73
2021/12/25 08:08:43;;;;;;;0.43;0.43;;;;;;;-1.76;81.64;101038.00;5053647;28;20029;-74
2021/12/25 08:11:08;;;;;;;0.40;0.40;;;;;;;-1.81;81.92;101034.19;5057265;28;20028;-74
2021/12/25 08:13:34;;;;;;;0.50;0.50;;;;;;;-1.87;82.79;101034.56;5056459;28;20064;-73
2021/12/25 08:15:59;;;;;;;0.40;0.40;;;;;;;-1.89;83.00;101036.09;5052387;28;20388;-75
2021/12/25 08:18:24;;;;;;;0.40;0.40;;;;;;;-1.92;83.22;101033.31;5043721;28;20311;-74
2021/12/25 08:20:50;;;;;;;0.43;0.43;;;;;;;-1.96;83.01;101042.41;5037553;28;20289;-74
2021/12/25 08:23:15;;;;;;;0.50;0.50;;;;;;;-1.98;83.02;101043.94;5037366;28;20384;-73
2021/12/25 08:25:41;;;;;;;0.50;0.50;;;;;;;-2.01;81.50;101050.50;5036847;28;20036;-73
2021/12/25 08:28:06;;;;;;;0.50;0.50;;;;;;;-2.05;80.77;101058.72;5042996;28;20053;-74
2021/12/25 08:30:32;;;;;;;0.40;0.40;;;;;;;-2.12;80.94;101067.59;5046711;28;20398;-77
2021/12/25 08:32:58;;;;;;;0.43;0.43;;;;;;;-2.15;81.79;101065.66;5042875;28;20028;-75
2021/12/25 08:35:26;;;;;;;0.40;0.40;;;;;;;-2.15;81.30;101075.94;5036935;28;20066;-71
2021/12/25 08:37:52;;;;;;;0.57;0.57;;;;;;;-2.17;81.20;101074.00;5022364;28;20287;-74
2021/12/25 08:40:17;;;;;;;0.40;0.40;;;;;;;-2.17;81.66;101076.56;5043658;28;20581;-75
2021/12/25 08:42:52;;;;;;;0.40;0.40;;;;;;;-2.19;81.16;101073.88;5053993;28;20071;-74
2021/12/25 08:48:02;;;;;;;0.40;0.40;;;;;;;-2.16;80.94;101079.28;5044666;28;20299;-72
2021/12/25 08:50:28;;;;;;;0.43;0.43;;;;;;;-2.16;80.10;101083.50;5036722;28;20284;-76
2021/12/25 08:52:54;;;;;;;0.67;0.67;;;;;;;-2.14;80.07;101089.66;5035010;28;20052;-75
2021/12/25 08:55:19;;;;;;;0.50;0.50;;;;;;;-2.10;79.95;101096.84;5035873;28;20108;-74
2021/12/25 08:57:45;;;;;;;0.40;0.40;;;;;;;-2.07;80.39;101094.53;5040863;28;20388;-73
2021/12/25 09:00:11;;;;;;;0.40;0.40;;;;;;;-2.05;80.41;101094.66;5055661;28;20025;-75
2021/12/25 09:02:37;;;;;;;0.40;0.40;;;;;;;-1.99;80.53;101108.00;5036664;28;20022;-76
2021/12/25 09:05:02;;;;;;;0.40;0.40;;;;;;;-1.98;80.20;101107.25;5035209;28;20272;-73
2021/12/25 09:07:29;;;;;;;0.40;0.40;;;;;;;-1.96;80.38;101104.03;5041977;28;20041;-75
2021/12/25 09:09:55;;;;;;;0.50;0.50;;;;;;;-1.91;80.15;101113.75;5055801;28;20094;-71
2021/12/25 09:12:22;;;;;;;0.40;0.40;;;;;;;-1.95;78.67;101120.31;5038184;28;20276;-72
2021/12/25 09:14:48;;;;;;;0.50;0.50;;;;;;;-1.98;78.99;101109.81;5035364;28;20291;-75
2021/12/25 09:17:13;;;;;;;0.40;0.40;;;;;;;-1.99;79.08;101106.31;5053395;28;20287;-71
2021/12/25 09:19:39;;;;;;;0.50;0.50;;;;;;;-1.98;79.47;101110.69;5041422;28;20024;-73
2021/12/25 09:22:07;;;;;;;0.60;0.60;;;;;;;-1.95;79.06;101105.81;5055747;28;20079;-72
2021/12/25 09:24:34;;;;;;;0.40;0.40;;;;;;;-1.95;78.83;101112.59;5054665;28;20041;-74
2021/12/25 09:26:59;;;;;;;0.50;0.50;;;;;;;-2.00;77.58;101108.78;5043442;28;20362;-74
2021/12/25 09:29:25;;;;;;;0.60;0.60;;;;;;;-2.03;77.79;101112.00;5045956;28;20371;-72
2021/12/25 09:31:50;;;;;;;0.60;0.60;;;;;;;-2.02;77.38;101113.78;5039365;28;20314;-76
2021/12/25 09:34:15;;;;;;;0.50;0.50;;;;;;;-1.96;78.03;101110.81;5055992;28;20435;-74
2021/12/25 09:36:41;;;;;;;0.53;0.53;;;;;;;-1.91;77.38;101126.59;5055308;28;20025;-73
2021/12/25 09:39:07;;;;;;;0.50;0.50;;;;;;;-1.97;77.00;101114.16;5056203;28;20040;-72
2021/12/25 09:41:33;;;;;;;0.53;0.53;;;;;;;-2.00;76.37;101117.38;5039399;28;20055;-72
2021/12/25 09:44:00;;;;;;;0.60;0.60;;;;;;;-2.00;76.33;101124.19;5046184;28;20020;-72
2021/12/25 09:46:26;;;;;;;0.70;0.70;;;;;;;-1.97;76.74;101125.34;5046462;28;20340;-74
2021/12/25 09:48:51;;;;;;;0.40;0.40;;;;;;;-1.88;77.36;101121.75;5047733;28;20337;-72
2021/12/25 09:51:19;;;;;;;0.60;0.60;;;;;;;-1.82;76.49;101125.69;5046823;28;20108;-74
2021/12/25 09:54:06;;;;;;;0.50;0.50;;;;;;;-1.82;76.27;101129.94;5049412;28;20329;-74
2021/12/25 09:56:32;;;;;;;;;;;;;;;-1.82;76.31;101128.28;5047336;28;20287;-74
2021/12/25 09:58:57;;;;;;;0.57;0.57;;;;;;;-1.76;76.95;101135.56;5050308;28;19917;-72
2021/12/25 10:01:41;;;;;;;0.50;0.50;;;;;;;-1.71;75.02;101146.22;5050904;28;20399;-73
2021/12/25 10:04:08;;;;;;;0.50;0.50;;;;;;;-1.74;75.34;101146.88;5047990;28;20100;-73
2021/12/25 10:06:36;;;;;;;0.50;0.50;;;;;;;-1.90;76.05;101144.72;5046313;28;20565;-74
2021/12/25 10:09:19;;;;;;;0.50;0.50;;;;;;;-2.02;76.95;101147.16;5046089;28;20313;-73
2021/12/25 10:12:02;;;;;;;0.47;0.47;;;;;;;-2.07;78.13;101145.84;5042574;28;20272;-74
2021/12/25 10:14:27;;;;;;;0.60;0.60;;;;;;;-2.14;77.03;101151.22;5037391;28;20315;-73
2021/12/25 10:16:53;;;;;;;0.40;0.40;;;;;;;-2.14;78.05;101146.09;5040147;28;20329;-73
2021/12/25 10:19:22;;;;;;;0.40;0.40;;;;;;;-2.15;77.91;101142.66;5045274;28;20029;-73
2021/12/25 10:21:48;;;;;;;0.43;0.43;;;;;;;-2.13;76.88;101151.38;5047093;28;20087;-71
2021/12/25 10:24:18;;;;;;;0.47;0.47;;;;;;;-2.10;76.98;101150.75;5058535;28;20271;-74
2021/12/25 10:26:46;;;;;;;0.50;0.50;;;;;;;-2.12;77.89;101140.34;5057771;28;20025;-73
2021/12/25 10:29:22;;;;;;;0.40;0.40;;;;;;;-2.09;77.81;101137.13;5042242;28;20336;-73
2021/12/25 10:31:54;;;;;;;0.60;0.60;;;;;;;-2.09;76.58;101150.88;5039029;28;20284;-72
2021/12/25 10:34:22;;;;;;;0.53;0.53;;;;;;;-2.02;76.72;101149.72;5038760;28;20327;-74
2021/12/25 10:36:48;;;;;;;0.50;0.50;;;;;;;-2.09;75.95;101149.97;5039019;28;20264;-74
2021/12/25 10:39:16;;;;;;;0.40;0.40;;;;;;;-2.15;75.10;101150.34;5054764;28;20302;-74
2021/12/25 10:42:11;;;;;;;0.50;0.50;;;;;;;-2.14;75.60;101152.16;5039168;28;20056;-74
2021/12/25 10:44:51;;;;;;;0.47;0.47;;;;;;;-2.09;74.81;101142.25;5038185;28;20635;-75
2021/12/25 10:47:20;;;;;;;0.50;0.50;;;;;;;-1.89;74.71;101146.50;5045074;28;20677;-74
2021/12/25 10:49:57;;;;;;;0.50;0.50;;;;;;;-1.60;73.38;101136.84;5044073;28;20341;-74
2021/12/25 10:52:32;;;;;;;0.60;0.60;;;;;;;-1.37;71.34;101133.56;5039132;28;20318;-76
2021/12/25 10:55:20;;;;;;;0.50;0.50;;;;;;;-1.09;71.91;101137.47;5043740;28;20324;-76
2021/12/25 10:57:50;;;;;;;0.50;0.50;;;;;;;-0.83;70.62;101131.84;5043515;28;20100;-76
2021/12/25 11:00:28;;;;;;;0.50;0.50;;;;;;;-0.50;68.20;101131.81;5058729;28;20271;-76
2021/12/25 11:03:02;;;;;;;0.40;0.40;;;;;;;-0.35;67.87;101130.41;5039178;28;20736;-76
2021/12/25 11:05:36;;;;;;;0.50;0.50;;;;;;;-0.25;67.04;101123.41;5040814;28;20288;-77
2021/12/25 11:08:07;;;;;;;0.40;0.40;;;;;;;-0.23;66.13;101126.97;5050355;28;20349;-77
2021/12/25 11:10:47;;;;;;;0.40;0.40;;;;;;;-0.09;65.49;101130.59;5059427;28;20291;-76
2021/12/25 11:13:25;;;;;;;0.50;0.50;;;;;;;-0.06;66.13;101138.59;5045527;28;20288;-77
2021/12/25 11:15:56;;;;;;;0.40;0.40;;;;;;;0.09;65.25;101133.69;5020627;28;20276;-75
2021/12/25 11:18:22;;;;;;;0.40;0.40;;;;;;;0.16;65.77;101138.50;5039581;28;20315;-75
2021/12/25 11:20:48;;;;;;;0.50;0.50;;;;;;;-0.06;64.32;101136.00;5041941;28;20313;-75
2021/12/25 11:23:15;;;;;;;0.50;0.50;;;;;;;-0.31;65.58;101131.56;5056462;28;20047;-76
2021/12/25 11:25:43;;;;;;;0.40;0.40;;;;;;;-0.47;65.16;101139.75;5057495;28;20094;-74
2021/12/25 11:28:13;;;;;;;0.50;0.50;;;;;;;-0.51;66.52;101130.00;5057700;28;20287;-76
2021/12/25 11:30:46;;;;;;;0.43;0.43;;;;;;;-0.45;66.83;101133.03;5057407;28;20650;-78
2021/12/25 11:33:11;;;;;;;0.40;0.40;;;;;;;-0.56;66.42;101120.25;5057313;28;20324;-77
2021/12/25 11:35:37;;;;;;;0.50;0.50;;;;;;;-0.60;67.14;101119.91;5056868;28;20382;-78
2021/12/25 11:38:05;;;;;;;0.40;0.40;;;;;;;-0.61;67.10;101126.69;5051133;28;20107;-78
2021/12/25 11:40:34;;;;;;;0.50;0.50;;;;;;;-0.65;66.33;101122.09;5037047;28;20036;-77
2021/12/25 11:43:02;;;;;;;0.50;0.50;;;;;;;-0.65;66.68;101121.19;5041741;28;20311;-75
2021/12/25 11:45:36;;;;;;;0.43;0.43;;;;;;;-0.69;65.93;101117.47;5056269;28;20282;-77
2021/12/25 11:48:16;;;;;;;0.60;0.60;;;;;;;-0.62;65.40;101113.75;5042751;28;20283;-76
2021/12/25 11:50:46;;;;;;;0.50;0.50;;;;;;;-0.49;67.05;101110.44;5049355;28;20546;-80
2021/12/25 11:53:39;;;;;;;0.40;0.40;;;;;;;-0.37;66.32;101110.50;5055206;28;20283;-78
2021/12/25 11:58:52;;;;;;;0.40;0.40;;;;;;;0.05;64.82;101111.06;5048092;28;20311;-78
2021/12/25 12:01:23;;;;;;;0.40;0.40;;;;;;;0.18;65.39;101116.34;5045021;28;20662;-80
2021/12/25 12:03:59;;;;;;;0.40;0.40;;;;;;;0.32;64.11;101103.59;5039991;28;20025;-78
2021/12/25 12:06:46;;;;;;;0.50;0.50;;;;;;;0.41;63.07;101101.69;5040054;28;20275;-79
2021/12/25 12:09:23;;;;;;;0.50;0.50;;;;;;;0.57;62.32;101105.41;5041338;28;20025;-79
2021/12/25 12:12:11;;;;;;;0.43;0.43;;;;;;;0.67;62.39;101105.28;5046939;28;20291;-81
2021/12/25 12:14:43;;;;;;;0.40;0.40;;;;;;;0.64;61.43;101098.22;5054498;28;20798;-78
2021/12/25 12:17:31;;;;;;;0.40;0.40;;;;;;;0.75;62.43;101095.53;5045408;28;20287;-72
2021/12/25 12:19:59;;;;;;;0.40;0.40;;;;;;;0.78;61.76;101090.59;5056887;28;20298;-80
2021/12/25 12:22:34;;;;;;;0.40;0.40;;;;;;;0.63;59.95;101086.09;5063742;28;20279;-80
2021/12/25 12:27:39;;;;;;;0.40;0.40;;;;;;;0.59;62.40;101094.41;5059155;28;20298;-80
2021/12/25 12:30:10;;;;;;;0.40;0.40;;;;;;;0.65;60.75;101087.16;5062822;28;20319;-81
2021/12/25 12:32:36;;;;;;;0.47;0.47;;;;;;;0.72;60.28;101096.19;5064697;28;20666;-77
2021/12/25 12:35:03;;;;;;;0.40;0.40;;;;;;;0.77;60.04;101091.38;5061246;28;20349;-78
2021/12/25 12:37:31;;;;;;;0.40;0.40;;;;;;;0.60;59.87;101083.31;5068045;28;20021;-78
2021/12/25 12:39:59;;;;;;;0.50;0.50;;;;;;;0.49;59.77;101085.13;5063772;28;20286;-81
2021/12/25 12:42:50;;;;;;;0.40;0.40;;;;;;;0.48;60.89;101077.25;5059201;28;20282;-79
2021/12/25 12:45:15;;;;;;;0.50;0.50;;;;;;;0.42;59.17;101069.97;5048563;28;20639;-76
2021/12/25 12:47:41;;;;;;;0.40;0.40;;;;;;;0.35;59.62;101065.16;5053682;28;20284;-79
2021/12/25 12:50:11;;;;;;;0.50;0.50;;;;;;;0.39;60.81;101062.91;5021038;28;20026;-79
2021/12/25 12:52:40;;;;;;;0.50;0.50;;;;;;;0.37;58.16;101064.50;5041929;28;20107;-77
2021/12/25 12:55:10;;;;;;;0.50;0.50;;;;;;;0.31;59.59;101068.31;5057735;28;20283;-80
2021/12/25 12:57:42;;;;;;;0.50;0.50;;;;;;;0.16;59.34;101052.59;5055236;28;20291;-78
2021/12/25 13:00:22;;;;;;;0.50;0.50;;;;;;;0.15;61.41;101056.88;5055460;28;20661;-78